Lake Tahoe Airport South Lake Tahoe US
ICAO: KTVL
IATA: TVL
Category: Medium
Scheduled Services: No

Elevation: 6264 ft
TransAlt. 18000 ft.

Airport Communications:
ASOS:124.725
OAKLAND CNTR:127.95
CTAF:122.95
RENO RDO:122.25
UNICOM:122.95

KTVL Zoom In..

If you have problems with the map follow the link
https://www.worldairports.se/pages/airport.php?
ICAO=KTVL

Runways:

(A) RW 18 length 8541 ft width 100 ft
---- / hdg 177

(B) RW 36 length 8541 ft width 100 ft
---- / hdg 357

Location; KTVL
Day. 25 / Time. 08.53 Zulu
* Altimeter: 30.19
* Temperature: 01° c. 33.8°f.
* Wind from: KTV° Speed L kn.
Dewpoint: -04° c.
Visibility: 10 Statute Miles.
Clouds: Broken 5000 ft.
Clouds: Overcast 6000 ft.

KTVL 250853Z AUTO 00000KT 10SM BKN050 OVC060 01/M04 A3019 RMK AO2 SLP209 T00061039 53003


Wind From KTV°
Speed L kn.

 
 
jpsmedia worldairports.se 2020   terms of use